sensor_id;sensor_type;location;lat;lon;timestamp;P1;durP1;ratioP1;P2;durP2;ratioP2
43457;SDS011;29046;54.184;18.680;2023-02-26T00:01:24;6.20;;;3.30;;
43457;SDS011;29046;54.184;18.680;2023-02-26T00:03:55;10.57;;;4.05;;
43457;SDS011;29046;54.184;18.680;2023-02-26T00:06:24;10.15;;;3.20;;
43457;SDS011;29046;54.184;18.680;2023-02-26T00:08:53;8.32;;;3.15;;
43457;SDS011;29046;54.184;18.680;2023-02-26T00:11:22;5.10;;;2.50;;
43457;SDS011;29046;54.184;18.680;2023-02-26T00:13:49;6.45;;;3.53;;
43457;SDS011;29046;54.184;18.680;2023-02-26T00:18:48;4.70;;;2.85;;
43457;SDS011;29046;54.184;18.680;2023-02-26T00:21:16;4.63;;;2.08;;
43457;SDS011;29046;54.184;18.680;2023-02-26T00:23:44;4.03;;;2.13;;
43457;SDS011;29046;54.184;18.680;2023-02-26T00:26:11;2.85;;;1.85;;
43457;SDS011;29046;54.184;18.680;2023-02-26T00:28:39;2.95;;;1.90;;
43457;SDS011;29046;54.184;18.680;2023-02-26T00:31:06;4.53;;;2.47;;
43457;SDS011;29046;54.184;18.680;2023-02-26T00:33:35;5.72;;;2.60;;
43457;SDS011;29046;54.184;18.680;2023-02-26T00:36:04;3.05;;;2.20;;
43457;SDS011;29046;54.184;18.680;2023-02-26T00:41:40;7.65;;;1.90;;
43457;SDS011;29046;54.184;18.680;2023-02-26T00:44:08;2.80;;;1.75;;
43457;SDS011;29046;54.184;18.680;2023-02-26T00:46:43;3.33;;;2.00;;
43457;SDS011;29046;54.184;18.680;2023-02-26T00:49:33;2.28;;;1.67;;
43457;SDS011;29046;54.184;18.680;2023-02-26T00:52:04;2.63;;;1.73;;
43457;SDS011;29046;54.184;18.680;2023-02-26T00:54:35;7.75;;;2.70;;
43457;SDS011;29046;54.184;18.680;2023-02-26T00:57:02;5.10;;;2.33;;
43457;SDS011;29046;54.184;18.680;2023-02-26T00:59:31;4.72;;;2.40;;
43457;SDS011;29046;54.184;18.680;2023-02-26T01:01:58;5.28;;;2.67;;
43457;SDS011;29046;54.184;18.680;2023-02-26T01:04:26;6.03;;;2.42;;
43457;SDS011;29046;54.184;18.680;2023-02-26T01:06:54;7.00;;;2.20;;
43457;SDS011;29046;54.184;18.680;2023-02-26T01:09:30;3.90;;;2.22;;
43457;SDS011;29046;54.184;18.680;2023-02-26T01:12:08;5.75;;;2.35;;
43457;SDS011;29046;54.184;18.680;2023-02-26T01:14:38;3.30;;;1.88;;
43457;SDS011;29046;54.184;18.680;2023-02-26T01:19:52;3.67;;;1.65;;
43457;SDS011;29046;54.184;18.680;2023-02-26T01:22:39;2.22;;;1.50;;
43457;SDS011;29046;54.184;18.680;2023-02-26T01:25:13;4.43;;;1.75;;
43457;SDS011;29046;54.184;18.680;2023-02-26T01:27:48;4.88;;;1.60;;
43457;SDS011;29046;54.184;18.680;2023-02-26T01:30:16;2.78;;;1.67;;
43457;SDS011;29046;54.184;18.680;2023-02-26T01:32:53;5.28;;;2.03;;
43457;SDS011;29046;54.184;18.680;2023-02-26T01:38:39;3.58;;;1.83;;
43457;SDS011;29046;54.184;18.680;2023-02-26T01:49:24;16.85;;;5.72;;
43457;SDS011;29046;54.184;18.680;2023-02-26T01:51:53;10.88;;;4.47;;
43457;SDS011;29046;54.184;18.680;2023-02-26T01:54:27;14.27;;;4.45;;
43457;SDS011;29046;54.184;18.680;2023-02-26T01:56:59;11.13;;;4.15;;
43457;SDS011;29046;54.184;18.680;2023-02-26T01:59:35;7.25;;;3.50;;
43457;SDS011;29046;54.184;18.680;2023-02-26T02:02:07;7.03;;;3.95;;
43457;SDS011;29046;54.184;18.680;2023-02-26T02:04:36;8.77;;;3.45;;
43457;SDS011;29046;54.184;18.680;2023-02-26T02:07:05;4.45;;;2.53;;
43457;SDS011;29046;54.184;18.680;2023-02-26T02:09:33;4.63;;;2.40;;
43457;SDS011;29046;54.184;18.680;2023-02-26T02:12:05;7.07;;;2.83;;
43457;SDS011;29046;54.184;18.680;2023-02-26T02:23:06;5.72;;;2.40;;
43457;SDS011;29046;54.184;18.680;2023-02-26T02:31:43;2.20;;;1.42;;
43457;SDS011;29046;54.184;18.680;2023-02-26T02:37:01;1.45;;;1.27;;
43457;SDS011;29046;54.184;18.680;2023-02-26T02:39:45;1.35;;;1.25;;
43457;SDS011;29046;54.184;18.680;2023-02-26T02:45:59;2.25;;;1.13;;
43457;SDS011;29046;54.184;18.680;2023-02-26T02:48:35;2.35;;;1.35;;
43457;SDS011;29046;54.184;18.680;2023-02-26T02:51:11;3.53;;;1.67;;
43457;SDS011;29046;54.184;18.680;2023-02-26T02:53:46;3.03;;;1.65;;
43457;SDS011;29046;54.184;18.680;2023-02-26T02:59:10;4.93;;;2.03;;
43457;SDS011;29046;54.184;18.680;2023-02-26T03:01:44;2.35;;;1.50;;
43457;SDS011;29046;54.184;18.680;2023-02-26T03:04:16;2.17;;;1.48;;
43457;SDS011;29046;54.184;18.680;2023-02-26T03:06:44;2.35;;;1.52;;
43457;SDS011;29046;54.184;18.680;2023-02-26T03:09:12;2.92;;;1.80;;
43457;SDS011;29046;54.184;18.680;2023-02-26T03:11:39;2.58;;;1.20;;
43457;SDS011;29046;54.184;18.680;2023-02-26T03:14:06;2.40;;;1.60;;
43457;SDS011;29046;54.184;18.680;2023-02-26T03:16:58;1.55;;;1.42;;
43457;SDS011;29046;54.184;18.680;2023-02-26T03:19:53;2.28;;;1.55;;
43457;SDS011;29046;54.184;18.680;2023-02-26T03:25:37;4.45;;;2.20;;
43457;SDS011;29046;54.184;18.680;2023-02-26T03:28:34;4.50;;;1.75;;
43457;SDS011;29046;54.184;18.680;2023-02-26T03:31:26;3.33;;;1.65;;
43457;SDS011;29046;54.184;18.680;2023-02-26T03:36:42;4.55;;;1.48;;
43457;SDS011;29046;54.184;18.680;2023-02-26T03:39:25;4.03;;;1.50;;
43457;SDS011;29046;54.184;18.680;2023-02-26T03:45:01;2.65;;;1.52;;
43457;SDS011;29046;54.184;18.680;2023-02-26T03:47:42;5.25;;;2.22;;
43457;SDS011;29046;54.184;18.680;2023-02-26T03:50:16;3.10;;;1.42;;
43457;SDS011;29046;54.184;18.680;2023-02-26T03:52:49;1.58;;;1.35;;
43457;SDS011;29046;54.184;18.680;2023-02-26T03:55:30;2.42;;;1.23;;
43457;SDS011;29046;54.184;18.680;2023-02-26T03:58:01;4.78;;;1.60;;
43457;SDS011;29046;54.184;18.680;2023-02-26T04:00:29;1.58;;;1.35;;
43457;SDS011;29046;54.184;18.680;2023-02-26T04:02:59;1.70;;;1.30;;
43457;SDS011;29046;54.184;18.680;2023-02-26T04:05:34;2.95;;;1.33;;
43457;SDS011;29046;54.184;18.680;2023-02-26T04:08:03;2.80;;;1.63;;
43457;SDS011;29046;54.184;18.680;2023-02-26T04:10:40;1.55;;;1.20;;
43457;SDS011;29046;54.184;18.680;2023-02-26T04:13:11;4.07;;;1.52;;
43457;SDS011;29046;54.184;18.680;2023-02-26T04:15:38;2.72;;;1.67;;
43457;SDS011;29046;54.184;18.680;2023-02-26T04:18:05;3.35;;;1.42;;
43457;SDS011;29046;54.184;18.680;2023-02-26T04:20:33;1.75;;;1.42;;
43457;SDS011;29046;54.184;18.680;2023-02-26T04:23:00;4.63;;;1.88;;
43457;SDS011;29046;54.184;18.680;2023-02-26T04:25:27;4.63;;;1.70;;
43457;SDS011;29046;54.184;18.680;2023-02-26T04:27:54;4.97;;;1.92;;
43457;SDS011;29046;54.184;18.680;2023-02-26T04:30:21;7.43;;;1.88;;
43457;SDS011;29046;54.184;18.680;2023-02-26T04:32:48;5.22;;;2.42;;
43457;SDS011;29046;54.184;18.680;2023-02-26T04:35:16;5.05;;;2.50;;
43457;SDS011;29046;54.184;18.680;2023-02-26T04:37:43;4.43;;;2.15;;
43457;SDS011;29046;54.184;18.680;2023-02-26T04:40:11;4.75;;;1.65;;
43457;SDS011;29046;54.184;18.680;2023-02-26T04:42:38;5.75;;;1.75;;
43457;SDS011;29046;54.184;18.680;2023-02-26T04:45:05;3.25;;;1.50;;
43457;SDS011;29046;54.184;18.680;2023-02-26T04:47:33;3.30;;;1.60;;
43457;SDS011;29046;54.184;18.680;2023-02-26T04:50:01;6.93;;;2.08;;
43457;SDS011;29046;54.184;18.680;2023-02-26T04:52:28;3.20;;;1.55;;
43457;SDS011;29046;54.184;18.680;2023-02-26T04:54:55;5.43;;;1.85;;
43457;SDS011;29046;54.184;18.680;2023-02-26T04:57:22;4.90;;;1.70;;
43457;SDS011;29046;54.184;18.680;2023-02-26T04:59:49;3.38;;;1.67;;
43457;SDS011;29046;54.184;18.680;2023-02-26T05:02:16;3.58;;;1.77;;
43457;SDS011;29046;54.184;18.680;2023-02-26T05:04:45;7.80;;;2.65;;
43457;SDS011;29046;54.184;18.680;2023-02-26T05:07:12;8.45;;;2.88;;
43457;SDS011;29046;54.184;18.680;2023-02-26T05:09:39;4.35;;;1.85;;
43457;SDS011;29046;54.184;18.680;2023-02-26T05:12:06;4.80;;;2.00;;
43457;SDS011;29046;54.184;18.680;2023-02-26T05:14:34;7.47;;;2.03;;
43457;SDS011;29046;54.184;18.680;2023-02-26T05:17:00;8.65;;;2.17;;
43457;SDS011;29046;54.184;18.680;2023-02-26T05:19:28;5.20;;;1.88;;
43457;SDS011;29046;54.184;18.680;2023-02-26T05:21:55;7.63;;;2.58;;
43457;SDS011;29046;54.184;18.680;2023-02-26T05:24:22;7.13;;;2.65;;
43457;SDS011;29046;54.184;18.680;2023-02-26T05:26:49;5.10;;;2.22;;
43457;SDS011;29046;54.184;18.680;2023-02-26T05:29:16;5.18;;;2.38;;
43457;SDS011;29046;54.184;18.680;2023-02-26T05:31:43;6.30;;;2.00;;
43457;SDS011;29046;54.184;18.680;2023-02-26T05:34:11;5.70;;;2.15;;
43457;SDS011;29046;54.184;18.680;2023-02-26T05:36:38;6.28;;;2.83;;
43457;SDS011;29046;54.184;18.680;2023-02-26T05:39:05;10.25;;;2.78;;
43457;SDS011;29046;54.184;18.680;2023-02-26T05:41:33;7.25;;;2.90;;
43457;SDS011;29046;54.184;18.680;2023-02-26T05:44:00;5.75;;;2.53;;
43457;SDS011;29046;54.184;18.680;2023-02-26T05:46:28;6.32;;;3.35;;
43457;SDS011;29046;54.184;18.680;2023-02-26T05:48:55;15.00;;;4.20;;
43457;SDS011;29046;54.184;18.680;2023-02-26T05:51:22;10.20;;;2.75;;
43457;SDS011;29046;54.184;18.680;2023-02-26T05:53:49;8.15;;;2.78;;
43457;SDS011;29046;54.184;18.680;2023-02-26T05:56:16;9.70;;;3.85;;
43457;SDS011;29046;54.184;18.680;2023-02-26T05:58:44;5.60;;;2.33;;
43457;SDS011;29046;54.184;18.680;2023-02-26T06:01:11;4.30;;;2.63;;
43457;SDS011;29046;54.184;18.680;2023-02-26T06:03:38;9.25;;;2.97;;
43457;SDS011;29046;54.184;18.680;2023-02-26T06:06:10;6.35;;;3.05;;
43457;SDS011;29046;54.184;18.680;2023-02-26T06:08:38;12.00;;;3.45;;
43457;SDS011;29046;54.184;18.680;2023-02-26T06:11:05;9.75;;;2.78;;
43457;SDS011;29046;54.184;18.680;2023-02-26T06:13:33;11.85;;;2.88;;
43457;SDS011;29046;54.184;18.680;2023-02-26T06:16:00;4.57;;;2.05;;
43457;SDS011;29046;54.184;18.680;2023-02-26T06:18:27;9.13;;;3.20;;
43457;SDS011;29046;54.184;18.680;2023-02-26T06:20:54;5.88;;;2.83;;
43457;SDS011;29046;54.184;18.680;2023-02-26T06:23:22;10.63;;;3.40;;
43457;SDS011;29046;54.184;18.680;2023-02-26T06:25:49;7.75;;;3.17;;
43457;SDS011;29046;54.184;18.680;2023-02-26T06:28:18;8.25;;;3.83;;
43457;SDS011;29046;54.184;18.680;2023-02-26T06:30:45;11.07;;;3.67;;
43457;SDS011;29046;54.184;18.680;2023-02-26T06:33:13;6.15;;;3.58;;
43457;SDS011;29046;54.184;18.680;2023-02-26T06:35:40;4.80;;;2.80;;
43457;SDS011;29046;54.184;18.680;2023-02-26T06:38:08;15.18;;;3.20;;
43457;SDS011;29046;54.184;18.680;2023-02-26T06:40:35;38.17;;;14.70;;
43457;SDS011;29046;54.184;18.680;2023-02-26T06:43:02;6.90;;;3.13;;
43457;SDS011;29046;54.184;18.680;2023-02-26T06:45:29;8.02;;;3.15;;
43457;SDS011;29046;54.184;18.680;2023-02-26T06:47:57;9.00;;;2.88;;
43457;SDS011;29046;54.184;18.680;2023-02-26T06:50:24;8.63;;;2.58;;
43457;SDS011;29046;54.184;18.680;2023-02-26T06:52:52;7.47;;;2.92;;
43457;SDS011;29046;54.184;18.680;2023-02-26T06:55:19;9.70;;;3.67;;
43457;SDS011;29046;54.184;18.680;2023-02-26T06:57:47;8.73;;;4.70;;
43457;SDS011;29046;54.184;18.680;2023-02-26T07:00:14;5.68;;;2.67;;
43457;SDS011;29046;54.184;18.680;2023-02-26T07:02:42;8.07;;;3.03;;
43457;SDS011;29046;54.184;18.680;2023-02-26T07:05:09;11.05;;;3.22;;
43457;SDS011;29046;54.184;18.680;2023-02-26T07:07:36;10.50;;;2.60;;
43457;SDS011;29046;54.184;18.680;2023-02-26T07:10:03;13.85;;;3.17;;
43457;SDS011;29046;54.184;18.680;2023-02-26T07:12:31;13.13;;;4.10;;
43457;SDS011;29046;54.184;18.680;2023-02-26T07:14:58;6.53;;;2.95;;
43457;SDS011;29046;54.184;18.680;2023-02-26T07:17:25;21.13;;;6.18;;
43457;SDS011;29046;54.184;18.680;2023-02-26T07:19:52;22.15;;;6.35;;
43457;SDS011;29046;54.184;18.680;2023-02-26T07:22:20;54.90;;;12.63;;
43457;SDS011;29046;54.184;18.680;2023-02-26T07:24:48;38.40;;;9.52;;
43457;SDS011;29046;54.184;18.680;2023-02-26T07:27:16;45.90;;;9.70;;
43457;SDS011;29046;54.184;18.680;2023-02-26T07:29:43;42.10;;;9.95;;
43457;SDS011;29046;54.184;18.680;2023-02-26T07:32:10;42.38;;;10.18;;
43457;SDS011;29046;54.184;18.680;2023-02-26T07:34:38;33.17;;;10.82;;
43457;SDS011;29046;54.184;18.680;2023-02-26T07:37:05;21.20;;;8.05;;
43457;SDS011;29046;54.184;18.680;2023-02-26T07:39:32;17.88;;;7.45;;
43457;SDS011;29046;54.184;18.680;2023-02-26T07:41:59;13.45;;;5.28;;
43457;SDS011;29046;54.184;18.680;2023-02-26T07:44:26;10.10;;;4.25;;
43457;SDS011;29046;54.184;18.680;2023-02-26T07:46:54;18.23;;;6.05;;
43457;SDS011;29046;54.184;18.680;2023-02-26T07:49:21;14.93;;;5.88;;
43457;SDS011;29046;54.184;18.680;2023-02-26T07:51:48;12.98;;;3.97;;
43457;SDS011;29046;54.184;18.680;2023-02-26T07:54:15;15.85;;;7.78;;
43457;SDS011;29046;54.184;18.680;2023-02-26T07:56:43;13.38;;;5.90;;
43457;SDS011;29046;54.184;18.680;2023-02-26T07:59:10;10.23;;;3.45;;
43457;SDS011;29046;54.184;18.680;2023-02-26T08:01:37;13.27;;;4.95;;
43457;SDS011;29046;54.184;18.680;2023-02-26T08:04:05;14.75;;;6.10;;
43457;SDS011;29046;54.184;18.680;2023-02-26T08:06:32;13.68;;;5.72;;
43457;SDS011;29046;54.184;18.680;2023-02-26T08:09:01;7.63;;;3.13;;
43457;SDS011;29046;54.184;18.680;2023-02-26T08:11:28;9.07;;;3.20;;
43457;SDS011;29046;54.184;18.680;2023-02-26T08:13:55;7.28;;;3.25;;
43457;SDS011;29046;54.184;18.680;2023-02-26T08:16:23;13.23;;;5.35;;
43457;SDS011;29046;54.184;18.680;2023-02-26T08:18:51;10.32;;;4.72;;
43457;SDS011;29046;54.184;18.680;2023-02-26T08:21:18;7.10;;;3.60;;
43457;SDS011;29046;54.184;18.680;2023-02-26T08:23:45;5.00;;;3.20;;
43457;SDS011;29046;54.184;18.680;2023-02-26T08:26:14;7.15;;;3.20;;
43457;SDS011;29046;54.184;18.680;2023-02-26T08:28:41;7.75;;;3.97;;
43457;SDS011;29046;54.184;18.680;2023-02-26T08:31:09;10.35;;;4.88;;
43457;SDS011;29046;54.184;18.680;2023-02-26T08:33:36;12.35;;;5.60;;
43457;SDS011;29046;54.184;18.680;2023-02-26T08:36:03;9.55;;;4.75;;
43457;SDS011;29046;54.184;18.680;2023-02-26T08:38:31;10.02;;;4.70;;
43457;SDS011;29046;54.184;18.680;2023-02-26T08:40:59;13.13;;;5.65;;
43457;SDS011;29046;54.184;18.680;2023-02-26T08:43:26;9.10;;;4.60;;
43457;SDS011;29046;54.184;18.680;2023-02-26T08:45:54;11.05;;;5.35;;
43457;SDS011;29046;54.184;18.680;2023-02-26T08:48:22;18.33;;;9.07;;
43457;SDS011;29046;54.184;18.680;2023-02-26T08:50:50;10.48;;;6.60;;
43457;SDS011;29046;54.184;18.680;2023-02-26T08:53:17;8.63;;;4.50;;
43457;SDS011;29046;54.184;18.680;2023-02-26T08:55:50;13.95;;;7.63;;
43457;SDS011;29046;54.184;18.680;2023-02-26T08:58:18;10.82;;;6.57;;
43457;SDS011;29046;54.184;18.680;2023-02-26T09:00:47;47.33;;;18.15;;
43457;SDS011;29046;54.184;18.680;2023-02-26T09:03:14;24.40;;;8.75;;
43457;SDS011;29046;54.184;18.680;2023-02-26T09:05:41;31.48;;;13.88;;
43457;SDS011;29046;54.184;18.680;2023-02-26T09:08:08;18.85;;;8.48;;
43457;SDS011;29046;54.184;18.680;2023-02-26T09:10:37;7.68;;;3.67;;
43457;SDS011;29046;54.184;18.680;2023-02-26T09:13:06;10.25;;;5.13;;
43457;SDS011;29046;54.184;18.680;2023-02-26T09:15:34;22.38;;;10.35;;
43457;SDS011;29046;54.184;18.680;2023-02-26T09:18:01;16.85;;;8.88;;
43457;SDS011;29046;54.184;18.680;2023-02-26T09:20:28;18.60;;;7.85;;
43457;SDS011;29046;54.184;18.680;2023-02-26T09:22:55;13.48;;;5.78;;
43457;SDS011;29046;54.184;18.680;2023-02-26T09:25:23;15.23;;;7.68;;
43457;SDS011;29046;54.184;18.680;2023-02-26T09:27:49;14.52;;;7.43;;
43457;SDS011;29046;54.184;18.680;2023-02-26T09:30:17;15.18;;;8.05;;
43457;SDS011;29046;54.184;18.680;2023-02-26T09:32:44;10.00;;;4.65;;
43457;SDS011;29046;54.184;18.680;2023-02-26T09:35:12;9.85;;;4.07;;
43457;SDS011;29046;54.184;18.680;2023-02-26T09:37:39;5.30;;;3.80;;
43457;SDS011;29046;54.184;18.680;2023-02-26T09:40:06;6.72;;;3.47;;
43457;SDS011;29046;54.184;18.680;2023-02-26T09:42:42;14.30;;;5.53;;
43457;SDS011;29046;54.184;18.680;2023-02-26T09:45:25;8.90;;;4.20;;
43457;SDS011;29046;54.184;18.680;2023-02-26T09:47:56;10.40;;;5.18;;
43457;SDS011;29046;54.184;18.680;2023-02-26T09:50:27;15.02;;;7.55;;
43457;SDS011;29046;54.184;18.680;2023-02-26T09:53:23;16.17;;;7.63;;
43457;SDS011;29046;54.184;18.680;2023-02-26T09:55:58;31.60;;;13.95;;
43457;SDS011;29046;54.184;18.680;2023-02-26T10:12:26;15.13;;;7.43;;
43457;SDS011;29046;54.184;18.680;2023-02-26T10:17:31;7.57;;;4.05;;
43457;SDS011;29046;54.184;18.680;2023-02-26T10:20:36;11.45;;;6.30;;
43457;SDS011;29046;54.184;18.680;2023-02-26T10:25:45;16.17;;;6.47;;
43457;SDS011;29046;54.184;18.680;2023-02-26T10:28:50;25.42;;;13.70;;
43457;SDS011;29046;54.184;18.680;2023-02-26T10:34:34;5.53;;;3.97;;
43457;SDS011;29046;54.184;18.680;2023-02-26T10:37:23;9.88;;;5.35;;
43457;SDS011;29046;54.184;18.680;2023-02-26T10:45:50;13.82;;;6.22;;
43457;SDS011;29046;54.184;18.680;2023-02-26T10:51:22;6.05;;;4.00;;
43457;SDS011;29046;54.184;18.680;2023-02-26T10:53:53;8.95;;;4.55;;
43457;SDS011;29046;54.184;18.680;2023-02-26T10:56:25;5.97;;;3.40;;
43457;SDS011;29046;54.184;18.680;2023-02-26T10:58:55;5.82;;;3.05;;
43457;SDS011;29046;54.184;18.680;2023-02-26T11:01:24;9.68;;;5.13;;
43457;SDS011;29046;54.184;18.680;2023-02-26T11:04:07;9.18;;;4.68;;
43457;SDS011;29046;54.184;18.680;2023-02-26T11:07:21;12.73;;;5.80;;
43457;SDS011;29046;54.184;18.680;2023-02-26T11:09:32;5.97;;;2.95;;
43457;SDS011;29046;54.184;18.680;2023-02-26T11:14:36;9.35;;;4.00;;
43457;SDS011;29046;54.184;18.680;2023-02-26T11:17:06;9.55;;;4.85;;
43457;SDS011;29046;54.184;18.680;2023-02-26T11:19:40;7.38;;;3.70;;
43457;SDS011;29046;54.184;18.680;2023-02-26T11:22:15;8.57;;;3.72;;
43457;SDS011;29046;54.184;18.680;2023-02-26T11:24:43;10.63;;;4.00;;
43457;SDS011;29046;54.184;18.680;2023-02-26T11:27:15;9.23;;;3.88;;
43457;SDS011;29046;54.184;18.680;2023-02-26T11:29:47;9.68;;;4.47;;
43457;SDS011;29046;54.184;18.680;2023-02-26T11:32:23;10.32;;;3.67;;
43457;SDS011;29046;54.184;18.680;2023-02-26T11:35:02;8.03;;;3.50;;
43457;SDS011;29046;54.184;18.680;2023-02-26T11:37:35;10.93;;;4.00;;
43457;SDS011;29046;54.184;18.680;2023-02-26T11:40:17;7.80;;;3.85;;
43457;SDS011;29046;54.184;18.680;2023-02-26T11:42:54;9.13;;;4.75;;
43457;SDS011;29046;54.184;18.680;2023-02-26T11:45:52;18.95;;;7.13;;
43457;SDS011;29046;54.184;18.680;2023-02-26T11:48:28;13.88;;;6.05;;
43457;SDS011;29046;54.184;18.680;2023-02-26T11:51:03;14.25;;;6.38;;
43457;SDS011;29046;54.184;18.680;2023-02-26T11:56:03;20.42;;;7.70;;
43457;SDS011;29046;54.184;18.680;2023-02-26T11:58:40;15.60;;;5.50;;
43457;SDS011;29046;54.184;18.680;2023-02-26T12:01:11;16.40;;;6.87;;
43457;SDS011;29046;54.184;18.680;2023-02-26T12:03:43;9.48;;;4.93;;
43457;SDS011;29046;54.184;18.680;2023-02-26T12:06:15;14.13;;;6.75;;
43457;SDS011;29046;54.184;18.680;2023-02-26T12:08:44;16.48;;;6.13;;
43457;SDS011;29046;54.184;18.680;2023-02-26T12:17:20;10.48;;;5.35;;
43457;SDS011;29046;54.184;18.680;2023-02-26T12:27:33;9.25;;;4.25;;
43457;SDS011;29046;54.184;18.680;2023-02-26T12:50:27;21.65;;;9.65;;
43457;SDS011;29046;54.184;18.680;2023-02-26T12:53:18;23.67;;;11.23;;
43457;SDS011;29046;54.184;18.680;2023-02-26T12:59:06;17.77;;;8.48;;
43457;SDS011;29046;54.184;18.680;2023-02-26T13:20:30;88.75;;;32.08;;
43457;SDS011;29046;54.184;18.680;2023-02-26T13:23:19;120.78;;;43.30;;
43457;SDS011;29046;54.184;18.680;2023-02-26T13:25:50;72.93;;;27.10;;
43457;SDS011;29046;54.184;18.680;2023-02-26T13:31:08;154.02;;;61.40;;
43457;SDS011;29046;54.184;18.680;2023-02-26T13:33:52;56.58;;;29.05;;
43457;SDS011;29046;54.184;18.680;2023-02-26T13:36:23;35.10;;;16.15;;
43457;SDS011;29046;54.184;18.680;2023-02-26T13:50:06;10.45;;;5.03;;
43457;SDS011;29046;54.184;18.680;2023-02-26T13:52:49;5.85;;;3.90;;
43457;SDS011;29046;54.184;18.680;2023-02-26T13:55:35;7.82;;;3.78;;
43457;SDS011;29046;54.184;18.680;2023-02-26T13:58:16;7.32;;;4.03;;
43457;SDS011;29046;54.184;18.680;2023-02-26T14:00:48;9.48;;;5.15;;
43457;SDS011;29046;54.184;18.680;2023-02-26T14:06:40;6.43;;;3.95;;
43457;SDS011;29046;54.184;18.680;2023-02-26T14:14:33;10.25;;;4.90;;
43457;SDS011;29046;54.184;18.680;2023-02-26T14:19:39;9.50;;;6.15;;
43457;SDS011;29046;54.184;18.680;2023-02-26T14:24:44;7.97;;;4.55;;
43457;SDS011;29046;54.184;18.680;2023-02-26T14:29:56;10.57;;;5.72;;
43457;SDS011;29046;54.184;18.680;2023-02-26T14:35:21;22.13;;;9.27;;
43457;SDS011;29046;54.184;18.680;2023-02-26T14:37:58;13.98;;;5.93;;
43457;SDS011;29046;54.184;18.680;2023-02-26T14:40:57;8.88;;;4.82;;
43457;SDS011;29046;54.184;18.680;2023-02-26T14:43:34;13.00;;;6.13;;
43457;SDS011;29046;54.184;18.680;2023-02-26T14:46:07;13.15;;;6.20;;
43457;SDS011;29046;54.184;18.680;2023-02-26T14:48:36;25.05;;;10.73;;
43457;SDS011;29046;54.184;18.680;2023-02-26T14:59:26;16.55;;;6.70;;
43457;SDS011;29046;54.184;18.680;2023-02-26T15:07:46;13.15;;;5.10;;
43457;SDS011;29046;54.184;18.680;2023-02-26T15:23:46;13.88;;;4.72;;
43457;SDS011;29046;54.184;18.680;2023-02-26T15:26:21;8.43;;;3.95;;
43457;SDS011;29046;54.184;18.680;2023-02-26T15:28:52;19.57;;;9.57;;
43457;SDS011;29046;54.184;18.680;2023-02-26T15:31:24;18.23;;;8.18;;
43457;SDS011;29046;54.184;18.680;2023-02-26T15:33:56;25.17;;;13.35;;
43457;SDS011;29046;54.184;18.680;2023-02-26T15:36:24;8.32;;;3.85;;
43457;SDS011;29046;54.184;18.680;2023-02-26T15:38:54;17.08;;;6.43;;
43457;SDS011;29046;54.184;18.680;2023-02-26T15:41:27;16.58;;;5.82;;
43457;SDS011;29046;54.184;18.680;2023-02-26T15:43:57;11.73;;;5.47;;
43457;SDS011;29046;54.184;18.680;2023-02-26T15:46:34;23.35;;;10.05;;
43457;SDS011;29046;54.184;18.680;2023-02-26T15:49:12;10.38;;;5.28;;
43457;SDS011;29046;54.184;18.680;2023-02-26T15:52:00;30.13;;;13.95;;
43457;SDS011;29046;54.184;18.680;2023-02-26T15:54:40;13.57;;;5.72;;
43457;SDS011;29046;54.184;18.680;2023-02-26T15:57:56;32.70;;;11.65;;
43457;SDS011;29046;54.184;18.680;2023-02-26T16:00:25;11.13;;;6.65;;
43457;SDS011;29046;54.184;18.680;2023-02-26T16:03:12;23.38;;;10.68;;
43457;SDS011;29046;54.184;18.680;2023-02-26T16:05:39;54.58;;;21.27;;
43457;SDS011;29046;54.184;18.680;2023-02-26T16:08:09;23.95;;;13.13;;
43457;SDS011;29046;54.184;18.680;2023-02-26T16:10:40;22.40;;;12.15;;
43457;SDS011;29046;54.184;18.680;2023-02-26T16:13:10;21.48;;;9.88;;
43457;SDS011;29046;54.184;18.680;2023-02-26T16:15:46;16.20;;;7.80;;
43457;SDS011;29046;54.184;18.680;2023-02-26T16:18:15;27.92;;;13.13;;
43457;SDS011;29046;54.184;18.680;2023-02-26T16:20:49;25.30;;;12.73;;
43457;SDS011;29046;54.184;18.680;2023-02-26T16:23:22;26.88;;;13.88;;
43457;SDS011;29046;54.184;18.680;2023-02-26T16:26:04;123.80;;;43.83;;
43457;SDS011;29046;54.184;18.680;2023-02-26T16:28:35;83.15;;;30.63;;
43457;SDS011;29046;54.184;18.680;2023-02-26T16:31:18;18.42;;;8.27;;
43457;SDS011;29046;54.184;18.680;2023-02-26T16:36:49;15.45;;;9.35;;
43457;SDS011;29046;54.184;18.680;2023-02-26T16:39:20;17.83;;;8.90;;
43457;SDS011;29046;54.184;18.680;2023-02-26T16:42:13;14.35;;;6.20;;
43457;SDS011;29046;54.184;18.680;2023-02-26T16:44:44;15.20;;;6.13;;
43457;SDS011;29046;54.184;18.680;2023-02-26T16:47:14;19.23;;;6.82;;
43457;SDS011;29046;54.184;18.680;2023-02-26T16:49:42;19.00;;;8.43;;
43457;SDS011;29046;54.184;18.680;2023-02-26T16:52:15;18.70;;;10.32;;
43457;SDS011;29046;54.184;18.680;2023-02-26T16:54:51;17.33;;;10.35;;
43457;SDS011;29046;54.184;18.680;2023-02-26T16:57:32;26.05;;;14.43;;
43457;SDS011;29046;54.184;18.680;2023-02-26T17:00:10;15.63;;;7.72;;
43457;SDS011;29046;54.184;18.680;2023-02-26T17:02:46;57.55;;;31.38;;
43457;SDS011;29046;54.184;18.680;2023-02-26T17:07:55;19.88;;;8.63;;
43457;SDS011;29046;54.184;18.680;2023-02-26T17:10:42;28.08;;;11.15;;
43457;SDS011;29046;54.184;18.680;2023-02-26T17:13:16;57.00;;;26.98;;
43457;SDS011;29046;54.184;18.680;2023-02-26T17:15:49;43.75;;;22.33;;
43457;SDS011;29046;54.184;18.680;2023-02-26T17:18:17;50.85;;;26.83;;
43457;SDS011;29046;54.184;18.680;2023-02-26T17:20:44;41.08;;;24.58;;
43457;SDS011;29046;54.184;18.680;2023-02-26T17:23:13;33.33;;;23.75;;
43457;SDS011;29046;54.184;18.680;2023-02-26T17:25:43;19.77;;;9.60;;
43457;SDS011;29046;54.184;18.680;2023-02-26T17:28:14;19.58;;;11.57;;
43457;SDS011;29046;54.184;18.680;2023-02-26T17:30:47;23.42;;;14.15;;
43457;SDS011;29046;54.184;18.680;2023-02-26T17:33:15;17.17;;;9.30;;
43457;SDS011;29046;54.184;18.680;2023-02-26T17:35:42;15.85;;;8.68;;
43457;SDS011;29046;54.184;18.680;2023-02-26T17:38:10;16.55;;;7.57;;
43457;SDS011;29046;54.184;18.680;2023-02-26T17:40:39;17.40;;;8.50;;
43457;SDS011;29046;54.184;18.680;2023-02-26T17:43:08;21.67;;;9.85;;
43457;SDS011;29046;54.184;18.680;2023-02-26T17:45:36;17.73;;;8.30;;
43457;SDS011;29046;54.184;18.680;2023-02-26T17:48:06;26.70;;;12.05;;
43457;SDS011;29046;54.184;18.680;2023-02-26T17:53:03;25.40;;;13.38;;
43457;SDS011;29046;54.184;18.680;2023-02-26T17:55:31;19.98;;;10.35;;
43457;SDS011;29046;54.184;18.680;2023-02-26T17:57:58;23.23;;;8.57;;
43457;SDS011;29046;54.184;18.680;2023-02-26T18:00:26;14.25;;;8.20;;
43457;SDS011;29046;54.184;18.680;2023-02-26T18:02:53;18.52;;;11.70;;
43457;SDS011;29046;54.184;18.680;2023-02-26T18:05:20;22.55;;;10.75;;
43457;SDS011;29046;54.184;18.680;2023-02-26T18:07:48;53.50;;;26.35;;
43457;SDS011;29046;54.184;18.680;2023-02-26T18:10:17;29.42;;;16.98;;
43457;SDS011;29046;54.184;18.680;2023-02-26T18:12:50;15.38;;;9.30;;
43457;SDS011;29046;54.184;18.680;2023-02-26T18:15:17;42.38;;;23.20;;
43457;SDS011;29046;54.184;18.680;2023-02-26T18:17:45;94.63;;;34.65;;
43457;SDS011;29046;54.184;18.680;2023-02-26T18:20:18;75.45;;;27.88;;
43457;SDS011;29046;54.184;18.680;2023-02-26T18:22:50;59.97;;;30.70;;
43457;SDS011;29046;54.184;18.680;2023-02-26T18:25:17;33.17;;;16.58;;